Mountain Pine, AR

5:12 PM CST on February 12, 2016 (GMT -0600)
Lake Hamilton | | Change Station
CLOSE
Current Station
Personal Weather Station
Location: Rockwell, AR
Elevation: 469 ft
Nearby Weather Stations

Elev 469 ft 34.48 °N, 93.15 °W | Updated 4 seconds ago

Mostly Cloudy
Mostly Cloudy
60.3 °F
Feels Like 60.3 °F
N
0.0
Wind Variable Wind from SSE
Gusts 1.7 mph

Today
High -- | Low -- °F
--% Chance of Precip.
Yesterday
High -- | Low -- °F
Precip. -- in
Pressure 30.29 in
Visibility 10.0 miles
Clouds Clear
Dew Point 37 °F
Humidity 42%
Rainfall 0.00 in
Snow Depth Not available.
7:01 AM 5:52 PM
Waxing Crescent, 24% visible
METAR KHOT 122253Z AUTO 34006KT 10SM CLR 16/M01 A3028 RMK AO2 SLP255 T01611006
Pressure 30.29 in
Visibility 10.0 miles
Clouds Clear
Dew Point 37 °F
Humidity 42%
Rainfall 0.00 in
Snow Depth Not available.
7:01 AM 5:52 PM
Waxing Crescent, 24% visible
METAR KHOT 122253Z AUTO 34006KT 10SM CLR 16/M01 A3028 RMK AO2 SLP255 T01611006

10-Day Weather Forecast

Almanac

Astronomy

Feb. 12, 2016 Rise Set
Actual Time
Civil Twilight
Nautical Twilight
Astronomical Twilight
Moon
Length of Visible Light
Length of Day
Tomorrow will be .
, % of the Moon is Illuminated

Today's Extremes

State Highs State Lows

Community

WunderPhotos

Upload Photos

1,892,431 photos uploaded!

WunderBlog® & News

Nearby

Air Quality

  Air Quality AQ Index Pollutant
Not available.

Snow Depth

Station Depth Elevation

Earthquake Activity

City Distance Mag. Time & Date
Minimum magnitude displayed is 2.5.

Coastal Water Temperatures

Place Temperature

Stations

Nearby Weather Stations

Station Location Temp. Windchill Dew Point Humidity Wind Precip. Elev Updated Type
                   

Watches & Warnings

There are currently no watches in effect.